Time;durP1;ratioP1;P1;durP2;ratioP2;P2;SDS_P1;SDS_P2;PMS_P1;PMS_P2;Temp;Humidity;BMP_temperature;BMP_pressure;BME280_temperature;BME280_humidity;BME280_pressure;Samples;Min_cycle;Max_cycle;Signal;HPM_P1;HPM_P2
2021/07/21 00:00:33;;;;;;;6.38;1.63;;;25.40;99.90;;;;;;20901171;28;20558;-74
2021/07/21 00:10:39;;;;;;;1.23;1.13;;;25.60;99.90;;;;;;20899739;28;20292;-73
2021/07/21 00:20:45;;;;;;;1.55;1.13;;;25.80;99.90;;;;;;20897566;28;20235;-71
2021/07/21 00:30:49;;;;;;;2.47;1.98;;;25.80;99.90;;;;;;20912027;28;20194;-72
2021/07/21 00:40:54;;;;;;;2.42;1.75;;;25.80;99.90;;;;;;20914433;28;20217;-71
2021/07/21 00:50:59;;;;;;;6.32;3.10;;;25.50;99.90;;;;;;20913440;28;20194;-70
2021/07/21 01:01:04;;;;;;;1.35;1.25;;;25.50;99.90;;;;;;20913190;28;20337;-71
2021/07/21 01:11:15;;;;;;;0.68;0.68;;;25.40;99.90;;;;;;20912657;28;20193;-71
2021/07/21 01:21:33;;;;;;;3.17;1.27;;;25.40;99.90;;;;;;20911117;28;20720;-71
2021/07/21 01:31:41;;;;;;;1.40;1.00;;;25.60;99.90;;;;;;20909776;28;20197;-71
2021/07/21 01:41:48;;;;;;;1.67;1.00;;;25.00;99.90;;;;;;20911260;28;20287;-72
2021/07/21 01:51:55;;;;;;;1.80;1.38;;;24.60;99.90;;;;;;20914907;28;20255;-72
2021/07/21 02:02:01;;;;;;;1.60;1.50;;;24.60;99.90;;;;;;20899088;23;20256;-67
2021/07/21 02:12:07;;;;;;;1.77;1.20;;;24.60;99.90;;;;;;20825319;28;20205;-68
2021/07/21 02:22:13;;;;;;;0.60;0.57;;;24.70;99.90;;;;;;20824627;28;20569;-67
2021/07/21 02:32:21;;;;;;;0.70;0.50;;;24.80;99.90;;;;;;20821409;28;20198;-66
2021/07/21 02:42:25;;;;;;;0.85;0.57;;;24.70;99.90;;;;;;20821025;28;20316;-67
2021/07/21 02:52:33;;;;;;;1.42;0.95;;;24.50;99.90;;;;;;20820465;28;20208;-67
2021/07/21 03:02:38;;;;;;;2.88;1.35;;;24.40;99.90;;;;;;20860291;23;20294;-71
2021/07/21 03:12:47;;;;;;;0.95;0.57;;;24.30;99.90;;;;;;20900841;28;20573;-72
2021/07/21 03:22:53;;;;;;;2.65;1.55;;;24.30;99.90;;;;;;20904665;28;20348;-71
2021/07/21 03:32:58;;;;;;;1.98;1.10;;;24.20;99.90;;;;;;20900699;28;20288;-73
2021/07/21 03:43:02;;;;;;;1.42;0.95;;;24.00;99.90;;;;;;20899648;28;20197;-71
2021/07/21 03:53:08;;;;;;;1.83;1.23;;;23.90;99.90;;;;;;20899225;28;20288;-74
2021/07/21 04:03:13;;;;;;;2.58;1.40;;;23.50;99.90;;;;;;20879459;22;20231;-73
2021/07/21 04:13:20;;;;;;;1.63;1.37;;;23.60;99.90;;;;;;20850311;28;20248;-72
2021/07/21 04:23:24;;;;;;;1.07;0.70;;;23.30;99.90;;;;;;20832102;28;20569;-74
2021/07/21 04:33:30;;;;;;;3.57;1.30;;;23.20;99.90;;;;;;20862154;28;20296;-74
2021/07/21 04:43:34;;;;;;;6.23;1.20;;;23.10;99.90;;;;;;20914504;28;20196;-72
2021/07/21 04:53:39;;;;;;;0.97;0.70;;;23.20;99.90;;;;;;20910597;28;20209;-73
2021/07/21 05:03:43;;;;;;;3.65;1.40;;;23.30;99.90;;;;;;20911602;28;20300;-73
2021/07/21 05:13:48;;;;;;;1.13;0.68;;;23.30;99.90;;;;;;20910532;28;20712;-73
2021/07/21 05:23:52;;;;;;;6.72;1.38;;;23.60;99.90;;;;;;20909607;28;20197;-71
2021/07/21 05:33:57;;;;;;;3.25;1.80;;;23.70;99.90;;;;;;20911500;28;20676;-73
2021/07/21 05:44:01;;;;;;;3.50;1.20;;;23.80;99.90;;;;;;20909523;28;20232;-73
2021/07/21 05:54:06;;;;;;;6.88;1.85;;;24.20;99.90;;;;;;20904621;28;20709;-74
2021/07/21 06:04:10;;;;;;;4.80;1.50;;;24.60;99.90;;;;;;20905803;28;20260;-73
2021/07/21 06:14:18;;;;;;;3.33;1.58;;;24.90;99.90;;;;;;20906216;28;20599;-73
2021/07/21 06:24:22;;;;;;;5.70;2.33;;;25.30;99.90;;;;;;20903461;28;20205;-73
2021/07/21 06:34:27;;;;;;;1.45;1.35;;;25.60;99.90;;;;;;20904193;28;20319;-73
2021/07/21 06:44:31;;;;;;;2.65;1.60;;;25.90;99.90;;;;;;20903028;28;20615;-74
2021/07/21 06:54:36;;;;;;;1.95;1.48;;;26.20;99.90;;;;;;20902838;28;21027;-75
2021/07/21 07:04:39;;;;;;;10.98;2.00;;;26.40;99.90;;;;;;20898344;28;20320;-73
2021/07/21 07:14:45;;;;;;;2.38;2.17;;;26.60;99.90;;;;;;20899032;28;20585;-73
2021/07/21 07:24:49;;;;;;;8.82;2.00;;;26.70;99.90;;;;;;20897951;28;20232;-73
2021/07/21 07:34:54;;;;;;;2.97;1.90;;;26.80;99.90;;;;;;20899638;28;20220;-74
2021/07/21 07:44:58;;;;;;;3.08;1.92;;;26.70;99.90;;;;;;20898717;28;20618;-72
2021/07/21 07:55:04;;;;;;;1.05;1.00;;;26.80;99.90;;;;;;20897671;28;20280;-73
2021/07/21 08:05:09;;;;;;;4.20;2.42;;;27.10;99.90;;;;;;20895760;28;20975;-72
2021/07/21 08:15:15;;;;;;;2.60;2.20;;;27.20;99.90;;;;;;20897215;28;20268;-73
2021/07/21 08:25:23;;;;;;;4.05;1.95;;;27.30;99.90;;;;;;20859547;28;20193;-71
2021/07/21 08:35:30;;;;;;;3.63;2.30;;;27.70;99.90;;;;;;20865840;28;20308;-70
2021/07/21 08:45:35;;;;;;;2.65;2.13;;;27.30;99.90;;;;;;20897352;28;20717;-71
2021/07/21 08:55:41;;;;;;;2.17;1.40;;;26.90;99.90;;;;;;20872209;28;20304;-72
2021/07/21 09:05:48;;;;;;;3.05;2.75;;;27.20;99.90;;;;;;20909028;28;20367;-73
2021/07/21 09:15:55;;;;;;;8.07;2.05;;;27.60;99.90;;;;;;20842629;28;20690;-74
2021/07/21 09:25:59;;;;;;;2.30;1.50;;;27.60;99.90;;;;;;20825447;28;20591;-70
2021/07/21 09:36:04;;;;;;;2.50;2.03;;;27.90;99.90;;;;;;20876639;28;20664;-67
2021/07/21 09:46:10;;;;;;;2.65;1.88;;;28.00;99.90;;;;;;20906218;28;20201;-70
2021/07/21 09:56:15;;;;;;;2.75;1.95;;;27.80;99.90;;;;;;20904889;28;20233;-72
2021/07/21 10:06:18;;;;;;;2.17;1.90;;;28.20;99.90;;;;;;20904627;28;20226;-70
2021/07/21 10:16:36;;;;;;;4.07;2.67;;;27.80;99.90;;;;;;20903742;28;20213;-70
2021/07/21 10:26:42;;;;;;;5.05;2.03;;;28.30;99.90;;;;;;20903679;28;20229;-73
2021/07/21 10:36:47;;;;;;;2.15;1.67;;;28.40;99.90;;;;;;20901854;28;20224;-73
2021/07/21 10:46:53;;;;;;;7.38;2.03;;;28.20;99.90;;;;;;20901642;28;20197;-73
2021/07/21 11:07:51;;;;;;;1.88;1.30;;;28.50;99.90;;;;;;20899092;28;20228;-71
2021/07/21 11:18:51;;;;;;;6.28;2.20;;;29.40;99.90;;;;;;20899746;28;20217;-72
2021/07/21 11:28:55;;;;;;;1.60;1.42;;;30.40;99.90;;;;;;20896511;28;20643;-75
2021/07/21 11:39:00;;;;;;;2.15;1.52;;;32.10;99.90;;;;;;20898463;28;20580;-73
2021/07/21 11:49:04;;;;;;;1.95;1.73;;;32.20;99.90;;;;;;20896397;28;20626;-75
2021/07/21 11:59:09;;;;;;;1.77;1.30;;;32.80;99.90;;;;;;20898870;28;20312;-80
2021/07/21 12:09:12;;;;;;;1.23;1.13;;;33.30;99.90;;;;;;20911951;28;20221;-76
2021/07/21 12:19:18;;;;;;;1.42;1.02;;;34.00;99.90;;;;;;20898664;28;20225;-79
2021/07/21 12:29:26;;;;;;;2.40;1.70;;;34.20;99.90;;;;;;20913074;28;20280;-76
2021/07/21 12:39:32;;;;;;;2.22;1.55;;;33.70;99.90;;;;;;20912125;28;20225;-72
2021/07/21 12:49:37;;;;;;;2.22;1.88;;;33.30;99.90;;;;;;20911177;28;20204;-73
2021/07/21 12:59:42;;;;;;;1.85;1.27;;;34.30;99.90;;;;;;20911263;28;20313;-73
2021/07/21 13:09:51;;;;;;;1.73;1.60;;;34.20;99.90;;;;;;20909853;28;20197;-73
2021/07/21 13:20:04;;;;;;;2.17;1.33;;;35.10;99.90;;;;;;20909575;28;20299;-71
2021/07/21 13:30:23;;;;;;;1.70;1.23;;;35.80;99.90;;;;;;20908791;28;20259;-72
2021/07/21 13:40:28;;;;;;;5.38;2.00;;;36.10;99.90;;;;;;20908297;28;20255;-72
2021/07/21 13:50:32;;;;;;;3.17;2.35;;;36.60;99.90;;;;;;20905118;28;20729;-72
2021/07/21 14:00:40;;;;;;;2.53;1.45;;;36.40;99.90;;;;;;20905571;28;20237;-72
2021/07/21 14:10:44;;;;;;;2.20;1.83;;;35.80;99.90;;;;;;20904717;28;20189;-73
2021/07/21 14:20:50;;;;;;;4.53;1.88;;;37.00;99.90;;;;;;20904999;28;20705;-72
2021/07/21 14:30:53;;;;;;;5.65;1.48;;;36.60;99.90;;;;;;20902200;28;20205;-71
2021/07/21 14:40:59;;;;;;;2.20;1.98;;;35.80;99.90;;;;;;20900771;28;20229;-71
2021/07/21 14:51:04;;;;;;;1.73;0.98;;;35.60;99.90;;;;;;20896935;28;20197;-73
2021/07/21 15:01:11;;;;;;;1.65;0.98;;;35.90;99.90;;;;;;20897851;28;20232;-72
2021/07/21 15:11:16;;;;;;;1.95;1.75;;;35.30;99.90;;;;;;20897532;28;20591;-73
2021/07/21 15:21:21;;;;;;;1.70;1.20;;;36.00;99.90;;;;;;20893369;28;20995;-71
2021/07/21 15:31:27;;;;;;;8.15;4.55;;;35.30;99.90;;;;;;20896574;28;20194;-72
2021/07/21 15:41:34;;;;;;;5.35;1.52;;;36.70;99.90;;;;;;20896718;28;20233;-72
2021/07/21 15:51:38;;;;;;;2.67;1.70;;;36.60;99.90;;;;;;20894890;28;20296;-79
2021/07/21 16:01:44;;;;;;;2.63;1.50;;;36.10;99.90;;;;;;20895659;28;20264;-72
2021/07/21 16:11:48;;;;;;;3.88;1.73;;;36.10;99.90;;;;;;20897219;28;20661;-70
2021/07/21 16:21:54;;;;;;;2.00;1.65;;;34.20;99.90;;;;;;20894742;28;20244;-72
2021/07/21 16:31:58;;;;;;;3.47;1.38;;;34.70;99.90;;;;;;20895625;28;20189;-77
2021/07/21 16:42:03;;;;;;;2.13;1.83;;;33.70;99.90;;;;;;20893729;28;20621;-73
2021/07/21 16:52:07;;;;;;;4.65;1.58;;;33.00;99.90;;;;;;20887771;28;20581;-74
2021/07/21 17:02:12;;;;;;;1.73;1.55;;;32.80;99.90;;;;;;20832983;28;20234;-74
2021/07/21 17:12:16;;;;;;;5.72;1.85;;;33.30;99.90;;;;;;20904639;28;20579;-76
2021/07/21 17:22:22;;;;;;;2.63;1.92;;;34.20;99.90;;;;;;20908330;28;20260;-76
2021/07/21 17:32:26;;;;;;;2.63;2.20;;;33.90;99.90;;;;;;20907258;28;20201;-74
2021/07/21 17:42:31;;;;;;;2.03;1.80;;;33.40;99.90;;;;;;20906214;28;20251;-73
2021/07/21 17:52:35;;;;;;;7.78;1.77;;;33.20;99.90;;;;;;20908115;28;20273;-73
2021/07/21 18:02:40;;;;;;;2.47;1.48;;;32.90;99.90;;;;;;20906686;28;20260;-76
2021/07/21 18:12:45;;;;;;;3.28;1.77;;;32.40;99.90;;;;;;20905743;28;20689;-77
2021/07/21 18:22:50;;;;;;;2.40;2.17;;;32.10;99.90;;;;;;20903271;28;20573;-75
2021/07/21 18:32:54;;;;;;;1.98;1.67;;;31.60;99.90;;;;;;20904287;28;20217;-78
2021/07/21 18:42:59;;;;;;;7.97;1.90;;;31.00;99.90;;;;;;20903729;28;20265;-78
2021/07/21 18:53:02;;;;;;;1.38;0.88;;;30.30;99.90;;;;;;20903036;28;20213;-75
2021/07/21 19:03:07;;;;;;;1.17;0.95;;;28.70;99.90;;;;;;20899561;28;20235;-74
2021/07/21 19:13:12;;;;;;;4.30;1.48;;;28.00;99.90;;;;;;20872564;28;20216;-69
2021/07/21 19:23:34;;;;;;;3.72;1.67;;;27.50;99.90;;;;;;20895373;28;20225;-73
2021/07/21 19:33:37;;;;;;;1.38;1.10;;;27.50;99.90;;;;;;20896129;28;20287;-74
2021/07/21 19:43:42;;;;;;;1.10;0.90;;;27.30;99.90;;;;;;20895991;28;20315;-74
2021/07/21 19:53:46;;;;;;;1.08;0.98;;;27.10;99.90;;;;;;20897157;28;20217;-75
2021/07/21 20:03:52;;;;;;;1.23;1.13;;;26.90;99.90;;;;;;20876270;28;20240;-76
2021/07/21 20:13:55;;;;;;;1.35;0.90;;;27.00;99.90;;;;;;20815226;28;20210;-76
2021/07/21 20:24:00;;;;;;;5.95;1.50;;;26.80;99.90;;;;;;20816489;28;20716;-77
2021/07/21 20:34:04;;;;;;;3.05;1.30;;;26.70;99.90;;;;;;20850077;28;20672;-73
2021/07/21 20:44:09;;;;;;;3.45;1.90;;;26.70;99.90;;;;;;20903075;28;20312;-75
2021/07/21 20:54:17;;;;;;;2.40;1.17;;;26.40;99.90;;;;;;20913143;28;20193;-73
2021/07/21 21:04:22;;;;;;;4.25;2.53;;;26.00;99.90;;;;;;20912776;28;20243;-75
2021/07/21 21:14:26;;;;;;;3.13;2.20;;;25.70;99.90;;;;;;20911790;28;20260;-74
2021/07/21 21:24:32;;;;;;;0.77;0.70;;;25.80;99.90;;;;;;20911587;28;20323;-71
2021/07/21 21:34:38;;;;;;;2.58;1.73;;;25.40;99.90;;;;;;20909325;28;20685;-73
2021/07/21 21:44:43;;;;;;;2.75;1.70;;;25.20;99.90;;;;;;20908690;28;20221;-73
2021/07/21 21:54:47;;;;;;;4.18;1.20;;;24.90;99.90;;;;;;20907585;28;20247;-74
2021/07/21 22:04:53;;;;;;;1.00;0.65;;;25.00;99.90;;;;;;20907436;28;20275;-73
2021/07/21 22:14:57;;;;;;;0.70;0.50;;;24.90;99.90;;;;;;20906802;28;20206;-73
2021/07/21 22:25:06;;;;;;;0.60;0.40;;;24.70;99.90;;;;;;20906970;28;20304;-72
2021/07/21 22:35:12;;;;;;;1.98;0.75;;;24.60;99.90;;;;;;20905701;28;20201;-73
2021/07/21 22:45:19;;;;;;;0.32;0.32;;;24.40;99.90;;;;;;20902611;28;20232;-74
2021/07/21 22:55:24;;;;;;;1.15;0.60;;;24.20;99.90;;;;;;20903608;28;20304;-73
2021/07/21 23:06:05;;;;;;;1.50;0.97;;;24.20;99.90;;;;;;20901261;28;20316;-74
2021/07/21 23:16:10;;;;;;;2.40;1.43;;;24.00;99.90;;;;;;20902077;28;20201;-74
2021/07/21 23:26:16;;;;;;;1.17;0.63;;;24.00;99.90;;;;;;20901969;28;20225;-75
2021/07/21 23:36:21;;;;;;;1.33;0.73;;;24.10;99.90;;;;;;20900703;28;20202;-76
2021/07/21 23:46:24;;;;;;;1.13;0.70;;;23.90;99.90;;;;;;20901248;28;20225;-75
2021/07/21 23:56:29;;;;;;;0.70;0.70;;;23.80;99.90;;;;;;20900565;28;20251;-75
